Hjaltland — VSTY8 — position and weather

sailwx.info

Track history (hours):
 
Tides and Currents Weather Stations Pressure Air Temp Water Temp Dewpoint Dewpoint Depression Visibility Wind Speed Wind Dir Waves Ship Positions

Hjaltland

Operator: NorthLink Orkey & Shetland Ferries Ltd

Last reported at 2018-Aug-17 23:48 UTC. Time now 2018-Aug-18 00:46 UTC.
Position N 58°58' W 002°39'.

Type: Ship. MMSI: 235450000.

Date/timePositionNaut miles runAvg speedWind from/ knotsBaromVisibWave heightAir tempDewpointWater temp
2018-Aug-17 23:48N 58°58' W 002°39'721.8
2018-Aug-17 23:30N 59°00' W 002°50'4 2.5
2018-Aug-17 21:49N 58°60' W 002°58'0 1.4
2018-Aug-17 21:30N 59°00' W 002°58'917.7
2018-Aug-17 21:00N 59°01' W 002°41'9 0.4
2018-Aug-17 00:41N 59°04' W 002°26'213.3
2018-Aug-17 00:30N 59°03' W 002°29'612.8
2018-Aug-17 00:00N 59°00' W 002°41'815.5
2018-Aug-16 23:30N 59°01' W 002°56'2 1.7
2018-Aug-16 22:23N 58°60' W 002°58'0 0.7
2018-Aug-16 22:00N 59°00' W 002°58'918.0
2018-Aug-16 21:30N 58°58' W 002°41'8823.1
2018-Aug-16 17:40N 57°36' W 001°41'321.1
2018-Aug-16 17:30N 57°32' W 001°40'1220.3
2018-Aug-16 16:54N 57°21' W 001°47'821.5
2018-Aug-16 16:30N 57°13' W 001°55'714.1
2018-Aug-16 16:00N 57°09' W 002°05'0 0.7
2018-Aug-16 15:29N 57°09' W 002°05'0 0.0
2018-Aug-16 14:59N 57°09' W 002°05'0 0.0
2018-Aug-16 14:29N 57°09' W 002°05'0 0.0
2018-Aug-16 13:59N 57°09' W 002°05'0 0.0
2018-Aug-16 13:29N 57°09' W 002°05'0 0.0
2018-Aug-16 12:59N 57°09' W 002°05'0 0.0
2018-Aug-16 12:29N 57°09' W 002°05'0 0.0
2018-Aug-16 11:59N 57°09' W 002°05'0 0.0
2018-Aug-16 11:26N 57°09' W 002°05'0 0.0
2018-Aug-16 10:59N 57°09' W 002°05'0 0.0
2018-Aug-16 10:29N 57°09' W 002°05'0 0.0
2018-Aug-16 09:59N 57°09' W 002°05'0 0.0
2018-Aug-16 09:29N 57°09' W 002°05'0 0.0
2018-Aug-16 08:59N 57°09' W 002°05'0 0.0
2018-Aug-16 08:29N 57°09' W 002°05'0 0.0
2018-Aug-16 07:59N 57°09' W 002°05'0 0.0
2018-Aug-16 07:29N 57°09' W 002°05'0 0.0
2018-Aug-16 06:59N 57°09' W 002°05'0 0.0
2018-Aug-16 06:29N 57°09' W 002°05'0 0.0
2018-Aug-16 05:59N 57°09' W 002°05'1 1.1
2018-Aug-16 05:30N 57°09' W 002°04'612.2
2018-Aug-16 05:00N 57°12' W 001°56'1516.9
2018-Aug-16 04:07N 57°25' W 001°41'317.1
2018-Aug-16 03:58N 57°27' W 001°38'9420.9
2018-Aug-15 23:28N 58°56' W 002°35'920.5
2018-Aug-15 23:00N 59°01' W 002°51'4 2.4
2018-Aug-15 21:26N 58°60' W 002°58'4 9.7
2018-Aug-15 21:00N 59°01' W 002°50'13 0.6
2018-Aug-15 00:50N 59°05' W 002°27'514.0
2018-Aug-15 00:30N 59°01' W 002°32'714.8
2018-Aug-15 00:00N 59°01' W 002°47'612.0
2018-Aug-14 23:30N 58°60' W 002°58'0 0.0
2018-Aug-14 22:05N 58°60' W 002°58'0 1.1
2018-Aug-14 22:00N 58°60' W 002°58'612.4
2018-Aug-14 21:30N 59°00' W 002°47'8922.8
2018-Aug-14 17:34N 57°37' W 001°43'223.0
2018-Aug-14 17:31N 57°36' W 001°42'1122.3
2018-Aug-14 17:00N 57°24' W 001°44'1122.3
2018-Aug-14 16:30N 57°15' W 001°54'816.6
2018-Aug-14 16:00N 57°09' W 002°04'1 1.0
2018-Aug-14 15:28N 57°09' W 002°05'0 0.0
2018-Aug-14 14:56N 57°09' W 002°05'0 0.0
2018-Aug-14 14:28N 57°09' W 002°05'0 0.0
2018-Aug-14 13:58N 57°09' W 002°05'0 0.0
2018-Aug-14 13:28N 57°09' W 002°05'0 0.0
2018-Aug-14 12:58N 57°09' W 002°05'0 0.0
2018-Aug-14 12:28N 57°09' W 002°05'0 0.0
2018-Aug-14 11:58N 57°09' W 002°05'0 0.0
2018-Aug-14 11:26N 57°09' W 002°05'0 0.0
2018-Aug-14 10:58N 57°09' W 002°05'0 0.0
2018-Aug-14 10:28N 57°09' W 002°05'0 0.0
2018-Aug-14 09:58N 57°09' W 002°05'0 0.0
2018-Aug-14 09:28N 57°09' W 002°05'0 0.0
2018-Aug-14 08:58N 57°09' W 002°05'0 0.0
2018-Aug-14 08:28N 57°09' W 002°05'0 0.0
2018-Aug-14 07:58N 57°09' W 002°05'0 0.0
2018-Aug-14 07:28N 57°09' W 002°05'0 0.0
2018-Aug-14 06:58N 57°09' W 002°05'0 0.0
2018-Aug-14 06:28N 57°09' W 002°05'0 0.0
2018-Aug-14 06:00N 57°09' W 002°05'1 1.7
2018-Aug-14 05:30N 57°09' W 002°04'611.2
2018-Aug-14 05:00N 57°12' W 001°56'1517.7
2018-Aug-14 04:09N 57°26' W 001°42'321.1
2018-Aug-14 04:00N 57°28' W 001°41'9521.0
2018-Aug-13 23:30N 58°58' W 002°38'1020.2
2018-Aug-13 23:00N 59°01' W 002°57'1 2.7
2018-Aug-13 22:30N 58°60' W 002°58'0 0.0
2018-Aug-13 22:00N 58°60' W 002°58'3 5.7
2018-Aug-13 21:29N 59°01' W 002°53'919.0
2018-Aug-13 21:00N 59°01' W 002°35'5 0.3
2018-Aug-13 00:15N 59°04' W 002°27'414.8
2018-Aug-13 00:01N 59°01' W 002°32'714.2
2018-Aug-12 23:30N 59°00' W 002°45'713.2
2018-Aug-12 23:00N 58°60' W 002°58'0 0.2
2018-Aug-12 22:28N 58°60' W 002°58'0 0.0
2018-Aug-12 22:00N 58°60' W 002°58'611.6
2018-Aug-12 21:30N 59°00' W 002°47'9122.4
2018-Aug-12 17:27N 57°36' W 001°40'1022.8
2018-Aug-12 17:00N 57°26' W 001°43'1223.1
2018-Aug-12 16:30N 57°16' W 001°52'1019.7
2018-Aug-12 16:00N 57°09' W 002°04'1 1.6
2018-Aug-12 15:29N 57°09' W 002°05'0 0.0
2018-Aug-12 14:59N 57°09' W 002°05'0 0.0
2018-Aug-12 14:29N 57°09' W 002°05'0 0.0
2018-Aug-12 13:59N 57°09' W 002°05'0 0.0
2018-Aug-12 13:29N 57°09' W 002°05'0 0.0
2018-Aug-12 12:59N 57°09' W 002°05'0 0.0
2018-Aug-12 12:29N 57°09' W 002°05'0 0.0
2018-Aug-12 11:59N 57°09' W 002°05'0 0.0
2018-Aug-12 11:29N 57°09' W 002°05'0 0.0
2018-Aug-12 10:53N 57°09' W 002°05'0 0.0
2018-Aug-12 10:29N 57°09' W 002°05'0 0.0
2018-Aug-12 09:59N 57°09' W 002°05'0 0.0
2018-Aug-12 09:29N 57°09' W 002°05'0 0.0
2018-Aug-12 08:59N 57°09' W 002°05'0 0.0
2018-Aug-12 08:27N 57°09' W 002°05'0 0.0
2018-Aug-12 07:59N 57°09' W 002°05'0 0.0
2018-Aug-12 07:29N 57°09' W 002°05'0 0.0
2018-Aug-12 06:59N 57°09' W 002°05'0 0.0
2018-Aug-12 06:29N 57°09' W 002°05'0 0.0
2018-Aug-12 05:59N 57°09' W 002°05'1 1.1
2018-Aug-12 05:30N 57°09' W 002°05'611.6
2018-Aug-12 05:01N 57°12' W 001°57'1414.3
2018-Aug-12 04:01N 57°24' W 001°43'012.1
2018-Aug-12 04:00N 57°25' W 001°43'613.0
2018-Aug-12 03:30N 57°30' W 001°38'5 0.2
2018-Aug-10 20:19N 57°36' W 001°37'413.1
2018-Aug-10 20:00N 57°31' W 001°37'713.2
2018-Aug-10 19:30N 57°25' W 001°41'713.6
2018-Aug-10 19:00N 57°19' W 001°48'714.0
2018-Aug-10 18:30N 57°14' W 001°55'713.8
2018-Aug-10 18:00N 57°09' W 002°04'1 1.6
2018-Aug-10 17:27N 57°09' W 002°05'0 0.0
2018-Aug-10 16:57N 57°09' W 002°05'0 0.0
2018-Aug-10 16:27N 57°09' W 002°05'0 0.0
2018-Aug-10 15:57N 57°09' W 002°05'0 0.0
2018-Aug-10 15:25N 57°09' W 002°05'0 0.0
2018-Aug-10 14:57N 57°09' W 002°05'0 0.0
2018-Aug-10 14:27N 57°09' W 002°05'0 0.0
2018-Aug-10 13:57N 57°09' W 002°05'0 0.0
2018-Aug-10 13:28N 57°09' W 002°05'0 0.0
2018-Aug-10 12:58N 57°09' W 002°05'0 0.0
2018-Aug-10 12:28N 57°09' W 002°05'0 0.0
2018-Aug-10 11:58N 57°09' W 002°05'0 0.0
2018-Aug-10 11:28N 57°09' W 002°05'0 0.0
2018-Aug-10 10:58N 57°09' W 002°05'0 0.0
2018-Aug-10 10:28N 57°09' W 002°05'0 0.0
2018-Aug-10 09:58N 57°09' W 002°05'0 0.0
2018-Aug-10 09:28N 57°09' W 002°05'0 0.0
2018-Aug-10 08:58N 57°09' W 002°05'0 0.0
2018-Aug-10 08:28N 57°09' W 002°05'0 0.0
2018-Aug-10 07:58N 57°09' W 002°05'0 0.0
2018-Aug-10 07:28N 57°09' W 002°05'0 0.0
2018-Aug-10 06:58N 57°09' W 002°05'0 0.0
2018-Aug-10 06:28N 57°09' W 002°05'0 0.0
2018-Aug-10 06:00N 57°09' W 002°05'1 1.4
2018-Aug-10 05:30N 57°08' W 002°04'611.5
2018-Aug-10 05:00N 57°12' W 001°56'714.2
2018-Aug-10 04:29N 57°18' W 001°48'711.9
2018-Aug-10 03:53N 57°24' W 001°41'812.1
2018-Aug-10 03:12N 57°32' W 001°35'312.9
2018-Aug-10 03:00N 57°35' W 001°35'1 0.0
2018-Aug-08 20:32N 57°35' W 001°37'012.3
2018-Aug-08 20:30N 57°35' W 001°37'611.9
2018-Aug-08 20:00N 57°29' W 001°38'611.9
2018-Aug-08 19:30N 57°24' W 001°42'712.9
2018-Aug-08 18:59N 57°18' W 001°49'613.4
2018-Aug-08 18:30N 57°13' W 001°56'612.7
2018-Aug-08 18:00N 57°09' W 002°04'1 1.5
2018-Aug-08 17:30N 57°09' W 002°05'0 0.0
2018-Aug-08 17:00N 57°09' W 002°05'0 0.0
2018-Aug-08 16:30N 57°09' W 002°05'0 0.0
2018-Aug-08 16:00N 57°09' W 002°05'0 0.0
2018-Aug-08 15:30N 57°09' W 002°05'0 0.0
2018-Aug-08 15:00N 57°09' W 002°05'0 0.0
2018-Aug-08 14:30N 57°09' W 002°05'0 0.0
2018-Aug-08 14:00N 57°09' W 002°05'0 0.0
2018-Aug-08 13:30N 57°09' W 002°05'0 0.0
2018-Aug-08 13:01N 57°09' W 002°05'0 0.0
2018-Aug-08 12:31N 57°09' W 002°05'0 0.0
2018-Aug-08 12:00N 57°09' W 002°05'0 0.0
2018-Aug-08 11:30N 57°09' W 002°05'0 0.0
2018-Aug-08 11:00N 57°09' W 002°05'0 0.0
2018-Aug-08 10:30N 57°09' W 002°05'0 0.0
2018-Aug-08 10:00N 57°09' W 002°05'0 0.0
2018-Aug-08 09:31N 57°09' W 002°05'0 0.0
2018-Aug-08 09:00N 57°09' W 002°05'0 0.0
2018-Aug-08 08:30N 57°09' W 002°05'0 0.0
2018-Aug-08 08:00N 57°09' W 002°05'0 0.0
2018-Aug-08 07:30N 57°09' W 002°05'0 0.0
2018-Aug-08 07:00N 57°09' W 002°05'0 0.0
2018-Aug-08 06:30N 57°09' W 002°05'0 0.0
2018-Aug-08 06:00N 57°09' W 002°05'1 1.1
2018-Aug-08 05:30N 57°09' W 002°04'611.8
2018-Aug-08 05:01N 57°13' W 001°57'814.9
2018-Aug-08 04:28N 57°19' W 001°49'711.6
2018-Aug-08 03:53N 57°25' W 001°42'511.9
2018-Aug-08 03:30N 57°29' W 001°37'611.8
2018-Aug-08 03:00N 57°34' W 001°34'  
Track history (hours):
 
Tides and Currents Weather Stations Pressure Air Temp Water Temp Dewpoint Dewpoint Depression Visibility Wind Speed Wind Dir Waves Ship Positions

Hjaltland

Operator: NorthLink Orkey & Shetland Ferries Ltd

Last reported at 2018-Aug-17 23:48 UTC. Time now 2018-Aug-18 00:46 UTC.
Position N 58°58' W 002°39'.

Type: Ship. MMSI: 235450000.

Date/timePositionNaut miles runAvg speedWind from/ knotsBaromVisibWave heightAir tempDewpointWater temp
2018-Aug-17 23:48N 58°58' W 002°39'721.8
2018-Aug-17 23:30N 59°00' W 002°50'4 2.5
2018-Aug-17 21:49N 58°60' W 002°58'0 1.4
2018-Aug-17 21:30N 59°00' W 002°58'917.7
2018-Aug-17 21:00N 59°01' W 002°41'9 0.4
2018-Aug-17 00:41N 59°04' W 002°26'213.3
2018-Aug-17 00:30N 59°03' W 002°29'612.8
2018-Aug-17 00:00N 59°00' W 002°41'815.5
2018-Aug-16 23:30N 59°01' W 002°56'2 1.7
2018-Aug-16 22:23N 58°60' W 002°58'0 0.7
2018-Aug-16 22:00N 59°00' W 002°58'918.0
2018-Aug-16 21:30N 58°58' W 002°41'8823.1
2018-Aug-16 17:40N 57°36' W 001°41'321.1
2018-Aug-16 17:30N 57°32' W 001°40'1220.3
2018-Aug-16 16:54N 57°21' W 001°47'821.5
2018-Aug-16 16:30N 57°13' W 001°55'714.1
2018-Aug-16 16:00N 57°09' W 002°05'0 0.7
2018-Aug-16 15:29N 57°09' W 002°05'0 0.0
2018-Aug-16 14:59N 57°09' W 002°05'0 0.0
2018-Aug-16 14:29N 57°09' W 002°05'0 0.0
2018-Aug-16 13:59N 57°09' W 002°05'0 0.0
2018-Aug-16 13:29N 57°09' W 002°05'0 0.0
2018-Aug-16 12:59N 57°09' W 002°05'0 0.0
2018-Aug-16 12:29N 57°09' W 002°05'0 0.0
2018-Aug-16 11:59N 57°09' W 002°05'0 0.0
2018-Aug-16 11:26N 57°09' W 002°05'0 0.0
2018-Aug-16 10:59N 57°09' W 002°05'0 0.0
2018-Aug-16 10:29N 57°09' W 002°05'0 0.0
2018-Aug-16 09:59N 57°09' W 002°05'0 0.0
2018-Aug-16 09:29N 57°09' W 002°05'0 0.0
2018-Aug-16 08:59N 57°09' W 002°05'0 0.0
2018-Aug-16 08:29N 57°09' W 002°05'0 0.0
2018-Aug-16 07:59N 57°09' W 002°05'0 0.0
2018-Aug-16 07:29N 57°09' W 002°05'0 0.0
2018-Aug-16 06:59N 57°09' W 002°05'0 0.0
2018-Aug-16 06:29N 57°09' W 002°05'0 0.0
2018-Aug-16 05:59N 57°09' W 002°05'1 1.1
2018-Aug-16 05:30N 57°09' W 002°04'612.2
2018-Aug-16 05:00N 57°12' W 001°56'1516.9
2018-Aug-16 04:07N 57°25' W 001°41'317.1
2018-Aug-16 03:58N 57°27' W 001°38'9420.9
2018-Aug-15 23:28N 58°56' W 002°35'920.5
2018-Aug-15 23:00N 59°01' W 002°51'4 2.4
2018-Aug-15 21:26N 58°60' W 002°58'4 9.7
2018-Aug-15 21:00N 59°01' W 002°50'13 0.6
2018-Aug-15 00:50N 59°05' W 002°27'514.0
2018-Aug-15 00:30N 59°01' W 002°32'714.8
2018-Aug-15 00:00N 59°01' W 002°47'612.0
2018-Aug-14 23:30N 58°60' W 002°58'0 0.0
2018-Aug-14 22:05N 58°60' W 002°58'0 1.1
2018-Aug-14 22:00N 58°60' W 002°58'612.4
2018-Aug-14 21:30N 59°00' W 002°47'8922.8
2018-Aug-14 17:34N 57°37' W 001°43'223.0
2018-Aug-14 17:31N 57°36' W 001°42'1122.3
2018-Aug-14 17:00N 57°24' W 001°44'1122.3
2018-Aug-14 16:30N 57°15' W 001°54'816.6
2018-Aug-14 16:00N 57°09' W 002°04'1 1.0
2018-Aug-14 15:28N 57°09' W 002°05'0 0.0
2018-Aug-14 14:56N 57°09' W 002°05'0 0.0
2018-Aug-14 14:28N 57°09' W 002°05'0 0.0
2018-Aug-14 13:58N 57°09' W 002°05'0 0.0
2018-Aug-14 13:28N 57°09' W 002°05'0 0.0
2018-Aug-14 12:58N 57°09' W 002°05'0 0.0
2018-Aug-14 12:28N 57°09' W 002°05'0 0.0
2018-Aug-14 11:58N 57°09' W 002°05'0 0.0
2018-Aug-14 11:26N 57°09' W 002°05'0 0.0
2018-Aug-14 10:58N 57°09' W 002°05'0 0.0
2018-Aug-14 10:28N 57°09' W 002°05'0 0.0
2018-Aug-14 09:58N 57°09' W 002°05'0 0.0
2018-Aug-14 09:28N 57°09' W 002°05'0 0.0
2018-Aug-14 08:58N 57°09' W 002°05'0 0.0
2018-Aug-14 08:28N 57°09' W 002°05'0 0.0
2018-Aug-14 07:58N 57°09' W 002°05'0 0.0
2018-Aug-14 07:28N 57°09' W 002°05'0 0.0
2018-Aug-14 06:58N 57°09' W 002°05'0 0.0
2018-Aug-14 06:28N 57°09' W 002°05'0 0.0
2018-Aug-14 06:00N 57°09' W 002°05'1 1.7
2018-Aug-14 05:30N 57°09' W 002°04'611.2
2018-Aug-14 05:00N 57°12' W 001°56'1517.7
2018-Aug-14 04:09N 57°26' W 001°42'321.1
2018-Aug-14 04:00N 57°28' W 001°41'9521.0
2018-Aug-13 23:30N 58°58' W 002°38'1020.2
2018-Aug-13 23:00N 59°01' W 002°57'1 2.7
2018-Aug-13 22:30N 58°60' W 002°58'0 0.0
2018-Aug-13 22:00N 58°60' W 002°58'3 5.7
2018-Aug-13 21:29N 59°01' W 002°53'919.0
2018-Aug-13 21:00N 59°01' W 002°35'5 0.3
2018-Aug-13 00:15N 59°04' W 002°27'414.8
2018-Aug-13 00:01N 59°01' W 002°32'714.2
2018-Aug-12 23:30N 59°00' W 002°45'713.2
2018-Aug-12 23:00N 58°60' W 002°58'0 0.2
2018-Aug-12 22:28N 58°60' W 002°58'0 0.0
2018-Aug-12 22:00N 58°60' W 002°58'611.6
2018-Aug-12 21:30N 59°00' W 002°47'9122.4
2018-Aug-12 17:27N 57°36' W 001°40'1022.8
2018-Aug-12 17:00N 57°26' W 001°43'1223.1
2018-Aug-12 16:30N 57°16' W 001°52'1019.7
2018-Aug-12 16:00N 57°09' W 002°04'1 1.6
2018-Aug-12 15:29N 57°09' W 002°05'0 0.0
2018-Aug-12 14:59N 57°09' W 002°05'0 0.0
2018-Aug-12 14:29N 57°09' W 002°05'0 0.0
2018-Aug-12 13:59N 57°09' W 002°05'0 0.0
2018-Aug-12 13:29N 57°09' W 002°05'0 0.0
2018-Aug-12 12:59N 57°09' W 002°05'0 0.0
2018-Aug-12 12:29N 57°09' W 002°05'0 0.0
2018-Aug-12 11:59N 57°09' W 002°05'0 0.0
2018-Aug-12 11:29N 57°09' W 002°05'0 0.0
2018-Aug-12 10:53N 57°09' W 002°05'0 0.0
2018-Aug-12 10:29N 57°09' W 002°05'0 0.0
2018-Aug-12 09:59N 57°09' W 002°05'0 0.0
2018-Aug-12 09:29N 57°09' W 002°05'0 0.0
2018-Aug-12 08:59N 57°09' W 002°05'0 0.0
2018-Aug-12 08:27N 57°09' W 002°05'0 0.0
2018-Aug-12 07:59N 57°09' W 002°05'0 0.0
2018-Aug-12 07:29N 57°09' W 002°05'0 0.0
2018-Aug-12 06:59N 57°09' W 002°05'0 0.0
2018-Aug-12 06:29N 57°09' W 002°05'0 0.0
2018-Aug-12 05:59N 57°09' W 002°05'1 1.1
2018-Aug-12 05:30N 57°09' W 002°05'611.6
2018-Aug-12 05:01N 57°12' W 001°57'1414.3
2018-Aug-12 04:01N 57°24' W 001°43'012.1
2018-Aug-12 04:00N 57°25' W 001°43'613.0
2018-Aug-12 03:30N 57°30' W 001°38'5 0.2
2018-Aug-10 20:19N 57°36' W 001°37'413.1
2018-Aug-10 20:00N 57°31' W 001°37'713.2
2018-Aug-10 19:30N 57°25' W 001°41'713.6
2018-Aug-10 19:00N 57°19' W 001°48'714.0
2018-Aug-10 18:30N 57°14' W 001°55'713.8
2018-Aug-10 18:00N 57°09' W 002°04'1 1.6
2018-Aug-10 17:27N 57°09' W 002°05'0 0.0
2018-Aug-10 16:57N 57°09' W 002°05'0 0.0
2018-Aug-10 16:27N 57°09' W 002°05'0 0.0
2018-Aug-10 15:57N 57°09' W 002°05'0 0.0
2018-Aug-10 15:25N 57°09' W 002°05'0 0.0
2018-Aug-10 14:57N 57°09' W 002°05'0 0.0
2018-Aug-10 14:27N 57°09' W 002°05'0 0.0
2018-Aug-10 13:57N 57°09' W 002°05'0 0.0
2018-Aug-10 13:28N 57°09' W 002°05'0 0.0
2018-Aug-10 12:58N 57°09' W 002°05'0 0.0
2018-Aug-10 12:28N 57°09' W 002°05'0 0.0
2018-Aug-10 11:58N 57°09' W 002°05'0 0.0
2018-Aug-10 11:28N 57°09' W 002°05'0 0.0
2018-Aug-10 10:58N 57°09' W 002°05'0 0.0
2018-Aug-10 10:28N 57°09' W 002°05'0 0.0
2018-Aug-10 09:58N 57°09' W 002°05'0 0.0
2018-Aug-10 09:28N 57°09' W 002°05'0 0.0
2018-Aug-10 08:58N 57°09' W 002°05'0 0.0
2018-Aug-10 08:28N 57°09' W 002°05'0 0.0
2018-Aug-10 07:58N 57°09' W 002°05'0 0.0
2018-Aug-10 07:28N 57°09' W 002°05'0 0.0
2018-Aug-10 06:58N 57°09' W 002°05'0 0.0
2018-Aug-10 06:28N 57°09' W 002°05'0 0.0
2018-Aug-10 06:00N 57°09' W 002°05'1 1.4
2018-Aug-10 05:30N 57°08' W 002°04'611.5
2018-Aug-10 05:00N 57°12' W 001°56'714.2
2018-Aug-10 04:29N 57°18' W 001°48'711.9
2018-Aug-10 03:53N 57°24' W 001°41'812.1
2018-Aug-10 03:12N 57°32' W 001°35'312.9
2018-Aug-10 03:00N 57°35' W 001°35'1 0.0
2018-Aug-08 20:32N 57°35' W 001°37'012.3
2018-Aug-08 20:30N 57°35' W 001°37'611.9
2018-Aug-08 20:00N 57°29' W 001°38'611.9
2018-Aug-08 19:30N 57°24' W 001°42'712.9
2018-Aug-08 18:59N 57°18' W 001°49'613.4
2018-Aug-08 18:30N 57°13' W 001°56'612.7
2018-Aug-08 18:00N 57°09' W 002°04'1 1.5
2018-Aug-08 17:30N 57°09' W 002°05'0 0.0
2018-Aug-08 17:00N 57°09' W 002°05'0 0.0
2018-Aug-08 16:30N 57°09' W 002°05'0 0.0
2018-Aug-08 16:00N 57°09' W 002°05'0 0.0
2018-Aug-08 15:30N 57°09' W 002°05'0 0.0
2018-Aug-08 15:00N 57°09' W 002°05'0 0.0
2018-Aug-08 14:30N 57°09' W 002°05'0 0.0
2018-Aug-08 14:00N 57°09' W 002°05'0 0.0
2018-Aug-08 13:30N 57°09' W 002°05'0 0.0
2018-Aug-08 13:01N 57°09' W 002°05'0 0.0
2018-Aug-08 12:31N 57°09' W 002°05'0 0.0
2018-Aug-08 12:00N 57°09' W 002°05'0 0.0
2018-Aug-08 11:30N 57°09' W 002°05'0 0.0
2018-Aug-08 11:00N 57°09' W 002°05'0 0.0
2018-Aug-08 10:30N 57°09' W 002°05'0 0.0
2018-Aug-08 10:00N 57°09' W 002°05'0 0.0
2018-Aug-08 09:31N 57°09' W 002°05'0 0.0
2018-Aug-08 09:00N 57°09' W 002°05'0 0.0
2018-Aug-08 08:30N 57°09' W 002°05'0 0.0
2018-Aug-08 08:00N 57°09' W 002°05'0 0.0
2018-Aug-08 07:30N 57°09' W 002°05'0 0.0
2018-Aug-08 07:00N 57°09' W 002°05'0 0.0
2018-Aug-08 06:30N 57°09' W 002°05'0 0.0
2018-Aug-08 06:00N 57°09' W 002°05'1 1.1
2018-Aug-08 05:30N 57°09' W 002°04'611.8
2018-Aug-08 05:01N 57°13' W 001°57'814.9
2018-Aug-08 04:28N 57°19' W 001°49'711.6
2018-Aug-08 03:53N 57°25' W 001°42'511.9
2018-Aug-08 03:30N 57°29' W 001°37'611.8
2018-Aug-08 03:00N 57°34' W 001°34'  

Dump ship's entire track history